Flight Track Log - Related Links

Times and Time Zones

All times are in EDT time to prevent confusion due to time zone crossing. See the CXA8360 flight status page for this flight to view local times or setup timezone preferences in your user account.

Time Position Orientation Groundspeed Altitude Reporting Facility
EDT Latitude Longitude Course Direction KTS MPH feet Rate Location/Type
Thu 11:14:00 AM 22.6337 109.5254 89° East  Level Estimated
Thu 11:15:00 AM 22.6353 109.6382 89° East  Level Estimated
Thu 11:16:00 AM 22.6369 109.7510 89° East  Level Estimated
Thu 11:17:00 AM 22.6383 109.8637 89° East  Level Estimated
Thu 11:18:00 AM 22.6397 109.9765 89° East  Level Estimated
Thu 11:19:00 AM 22.6410 110.0893 89° East  Level Estimated
Thu 11:20:00 AM 22.6422 110.2021 89° East  Level Estimated
Thu 11:21:00 AM 22.6434 110.3148 89° East  Level Estimated
Thu 11:22:00 AM 22.6444 110.4276 89° East  Level Estimated
Thu 11:23:00 AM 22.6454 110.5404 89° East  Level Estimated
Thu 11:24:00 AM 22.6463 110.6532 89° East  Level Estimated
Thu 11:25:00 AM 22.6471 110.7660 90° East  Level Estimated
Thu 11:26:00 AM 22.6479 110.8788 90° East  Level Estimated
Thu 11:27:00 AM 22.6485 110.9916 90° East  Level Estimated
Thu 11:28:00 AM 22.6491 111.1044 90° East  Level Estimated
Thu 11:29:00 AM 22.6496 111.2171 90° East  Level Estimated
Thu 11:30:00 AM 22.6500 111.3299 90° East  Level Estimated
Thu 11:31:00 AM 22.6504 111.4427 90° East  Level Estimated
Thu 11:32:00 AM 22.6507 111.5555 90° East  Level Estimated
Thu 11:33:00 AM 22.6509 111.6683 90° East  Level Estimated
Thu 11:34:00 AM 22.6510 111.7811 90° East  Level Estimated
Thu 11:35:00 AM 22.6510 111.8939 90° East  Level Estimated
Thu 11:36:00 AM 22.6509 112.0067 90° East  Level Estimated
Thu 11:37:00 AM 22.6508 112.1195 90° East  Level Estimated
Thu 11:38:00 AM 22.6506 112.2323 90° East  Level Estimated
Thu 11:39:00 AM 22.6503 112.3451 90° East  Level Estimated
Thu 11:40:00 AM 22.6500 112.4579 90° East  Level Estimated
Thu 11:41:00 AM 22.6495 112.5707 90° East  Level Estimated
Thu 11:42:00 AM 22.6490 112.6835 90° East  Level Estimated
Thu 11:43:00 AM 22.6484 112.7963 90° East  Level Estimated
Thu 11:44:00 AM 22.6477 112.9091 90° East  Level Estimated
Thu 11:45:00 AM 22.6470 113.0219 90° East  Level Estimated
Thu 11:46:00 AM 22.6462 113.1346 90° East  Level Estimated
Thu 11:47:00 AM 22.6452 113.2474 90° East  Level Estimated
Thu 11:48:00 AM 22.6443 113.3602 91° East  Level Estimated
Thu 11:49:00 AM 22.6432 113.4730 91° East  Level Estimated
Thu 11:50:00 AM 22.6420 113.5858 91° East  Level Estimated
Thu 11:51:00 AM 22.6408 113.6986 91° East  Level Estimated
Thu 11:52:00 AM 22.6395 113.8113 91° East  Level Estimated
Thu 11:53:00 AM 22.6395 113.8124 91° East  Level Estimated
Thu 11:54:00 AM 22.6395 113.8124 North  Level Estimated
Thu 11:55:00 AM 22.6395 113.8124 North  Level Estimated
Thu 11:56:00 AM 22.6395 113.8124 North  Level Estimated
Thu 11:57:00 AM 22.6395 113.8124 North  Level Estimated
Thu 11:58:00 AM 22.6395 113.8124 North  Level Estimated
Thu 11:59:00 AM 22.6395 113.8124 North  Level Estimated
Thu 12:00:00 PM 22.6395 113.8124 North  Level Estimated
Thu 12:01:00 PM 22.6395 113.8124 North  Level Estimated
Thu 12:02:00 PM 22.6395 113.8124 North  Level Estimated
Thu 12:03:00 PM 22.6395 113.8124 North  Level Estimated
Thu 12:04:00 PM 22.6395 113.8124 North  Level Estimated
Thu 12:05:00 PM 22.6395 113.8124 North  Level Estimated
Thu 12:06:00 PM 22.6395 113.8124 North  Level Estimated
Thu 12:07:00 PM 22.6395 113.8124 North  Level Estimated
Thu 12:08:00 PM 22.6395 113.8124 North  Level Estimated

Login

Don't have an account? Register now (free) for customized features, flight alerts, and more!